sensor_id;sensor_type;location;lat;lon;timestamp;temperature;humidity
22436;DHT22;11385;50.822;4.324;2023-05-21T00:02:20;17.00;99.90
22436;DHT22;11385;50.822;4.324;2023-05-21T00:04:47;16.80;99.90
22436;DHT22;11385;50.822;4.324;2023-05-21T00:07:13;16.80;99.90
22436;DHT22;11385;50.822;4.324;2023-05-21T00:09:40;16.80;99.90
22436;DHT22;11385;50.822;4.324;2023-05-21T00:12:08;16.90;99.90
22436;DHT22;11385;50.822;4.324;2023-05-21T00:14:35;16.90;99.90
22436;DHT22;11385;50.822;4.324;2023-05-21T00:17:01;16.90;99.90
22436;DHT22;11385;50.822;4.324;2023-05-21T00:19:28;16.90;99.90
22436;DHT22;11385;50.822;4.324;2023-05-21T00:21:57;16.80;99.90
22436;DHT22;11385;50.822;4.324;2023-05-21T00:24:25;16.90;99.90
22436;DHT22;11385;50.822;4.324;2023-05-21T00:26:52;16.70;99.90
22436;DHT22;11385;50.822;4.324;2023-05-21T00:29:19;16.70;99.90
22436;DHT22;11385;50.822;4.324;2023-05-21T00:31:45;16.90;99.90
22436;DHT22;11385;50.822;4.324;2023-05-21T00:34:13;16.80;99.90
22436;DHT22;11385;50.822;4.324;2023-05-21T00:36:39;16.60;99.90
22436;DHT22;11385;50.822;4.324;2023-05-21T00:39:09;16.60;99.90
22436;DHT22;11385;50.822;4.324;2023-05-21T00:41:36;16.60;99.90
22436;DHT22;11385;50.822;4.324;2023-05-21T00:44:05;16.50;99.90
22436;DHT22;11385;50.822;4.324;2023-05-21T00:46:32;16.50;99.90
22436;DHT22;11385;50.822;4.324;2023-05-21T00:48:59;16.50;99.90
22436;DHT22;11385;50.822;4.324;2023-05-21T00:51:27;16.50;99.90
22436;DHT22;11385;50.822;4.324;2023-05-21T00:53:55;16.40;99.90
22436;DHT22;11385;50.822;4.324;2023-05-21T00:56:24;16.40;99.90
22436;DHT22;11385;50.822;4.324;2023-05-21T00:58:54;16.50;99.90
22436;DHT22;11385;50.822;4.324;2023-05-21T01:01:22;16.40;99.90
22436;DHT22;11385;50.822;4.324;2023-05-21T01:03:53;16.30;99.90
22436;DHT22;11385;50.822;4.324;2023-05-21T01:06:22;16.20;99.90
22436;DHT22;11385;50.822;4.324;2023-05-21T01:08:49;16.30;99.90
22436;DHT22;11385;50.822;4.324;2023-05-21T01:11:17;16.20;99.90
22436;DHT22;11385;50.822;4.324;2023-05-21T01:13:45;16.40;99.90
22436;DHT22;11385;50.822;4.324;2023-05-21T01:16:13;16.40;99.90
22436;DHT22;11385;50.822;4.324;2023-05-21T01:18:40;16.20;99.90
22436;DHT22;11385;50.822;4.324;2023-05-21T01:21:09;16.20;99.90
22436;DHT22;11385;50.822;4.324;2023-05-21T01:23:36;16.20;99.90
22436;DHT22;11385;50.822;4.324;2023-05-21T01:26:02;16.10;99.90
22436;DHT22;11385;50.822;4.324;2023-05-21T01:28:29;16.10;99.90
22436;DHT22;11385;50.822;4.324;2023-05-21T01:31:01;16.10;99.90
22436;DHT22;11385;50.822;4.324;2023-05-21T01:33:32;16.10;99.90
22436;DHT22;11385;50.822;4.324;2023-05-21T01:36:03;16.00;99.90
22436;DHT22;11385;50.822;4.324;2023-05-21T01:38:40;16.00;99.90
22436;DHT22;11385;50.822;4.324;2023-05-21T01:41:10;16.10;99.90
22436;DHT22;11385;50.822;4.324;2023-05-21T01:43:38;15.90;99.90
22436;DHT22;11385;50.822;4.324;2023-05-21T01:46:09;15.80;99.90
22436;DHT22;11385;50.822;4.324;2023-05-21T01:48:36;15.90;99.90
22436;DHT22;11385;50.822;4.324;2023-05-21T01:51:05;15.90;99.90
22436;DHT22;11385;50.822;4.324;2023-05-21T01:53:32;15.80;99.90
22436;DHT22;11385;50.822;4.324;2023-05-21T01:55:58;15.80;99.90
22436;DHT22;11385;50.822;4.324;2023-05-21T01:58:25;15.80;99.90
22436;DHT22;11385;50.822;4.324;2023-05-21T02:00:52;15.80;99.90
22436;DHT22;11385;50.822;4.324;2023-05-21T02:03:20;15.80;99.90
22436;DHT22;11385;50.822;4.324;2023-05-21T02:05:47;15.60;99.90
22436;DHT22;11385;50.822;4.324;2023-05-21T02:08:14;15.60;99.90
22436;DHT22;11385;50.822;4.324;2023-05-21T02:10:41;15.40;99.90
22436;DHT22;11385;50.822;4.324;2023-05-21T02:13:07;15.20;99.90
22436;DHT22;11385;50.822;4.324;2023-05-21T02:15:35;15.10;99.90
22436;DHT22;11385;50.822;4.324;2023-05-21T02:18:02;15.10;99.90
22436;DHT22;11385;50.822;4.324;2023-05-21T02:20:29;15.20;99.90
22436;DHT22;11385;50.822;4.324;2023-05-21T02:22:56;15.00;99.90
22436;DHT22;11385;50.822;4.324;2023-05-21T02:25:23;15.10;99.90
22436;DHT22;11385;50.822;4.324;2023-05-21T02:27:49;15.10;99.90
22436;DHT22;11385;50.822;4.324;2023-05-21T02:30:18;15.20;99.90
22436;DHT22;11385;50.822;4.324;2023-05-21T02:32:46;15.20;99.90
22436;DHT22;11385;50.822;4.324;2023-05-21T02:35:13;15.10;99.90
22436;DHT22;11385;50.822;4.324;2023-05-21T02:37:42;15.10;99.90
22436;DHT22;11385;50.822;4.324;2023-05-21T02:40:10;15.20;99.90
22436;DHT22;11385;50.822;4.324;2023-05-21T02:42:38;15.20;99.90
22436;DHT22;11385;50.822;4.324;2023-05-21T02:45:07;15.30;99.90
22436;DHT22;11385;50.822;4.324;2023-05-21T02:47:34;15.30;99.90
22436;DHT22;11385;50.822;4.324;2023-05-21T02:50:01;15.50;99.90
22436;DHT22;11385;50.822;4.324;2023-05-21T02:52:28;15.40;99.90
22436;DHT22;11385;50.822;4.324;2023-05-21T02:54:54;15.50;99.90
22436;DHT22;11385;50.822;4.324;2023-05-21T02:57:21;15.30;99.90
22436;DHT22;11385;50.822;4.324;2023-05-21T02:59:48;15.10;99.90
22436;DHT22;11385;50.822;4.324;2023-05-21T03:02:16;15.00;99.90
22436;DHT22;11385;50.822;4.324;2023-05-21T03:04:42;14.90;99.90
22436;DHT22;11385;50.822;4.324;2023-05-21T03:07:12;15.00;99.90
22436;DHT22;11385;50.822;4.324;2023-05-21T03:09:40;14.90;99.90
22436;DHT22;11385;50.822;4.324;2023-05-21T03:12:08;15.10;99.90
22436;DHT22;11385;50.822;4.324;2023-05-21T03:14:34;15.20;99.90
22436;DHT22;11385;50.822;4.324;2023-05-21T03:17:01;15.10;99.90
22436;DHT22;11385;50.822;4.324;2023-05-21T03:19:31;15.10;99.90
22436;DHT22;11385;50.822;4.324;2023-05-21T03:22:02;15.10;99.90
22436;DHT22;11385;50.822;4.324;2023-05-21T03:24:29;15.20;99.90
22436;DHT22;11385;50.822;4.324;2023-05-21T03:26:56;15.20;99.90
22436;DHT22;11385;50.822;4.324;2023-05-21T03:29:24;15.20;99.90
22436;DHT22;11385;50.822;4.324;2023-05-21T03:31:51;15.20;99.90
22436;DHT22;11385;50.822;4.324;2023-05-21T03:34:19;15.10;99.90
22436;DHT22;11385;50.822;4.324;2023-05-21T03:36:46;15.10;99.90
22436;DHT22;11385;50.822;4.324;2023-05-21T03:39:13;15.10;99.90
22436;DHT22;11385;50.822;4.324;2023-05-21T03:41:40;15.00;99.90
22436;DHT22;11385;50.822;4.324;2023-05-21T03:44:07;14.90;99.90
22436;DHT22;11385;50.822;4.324;2023-05-21T03:46:34;14.90;99.90
22436;DHT22;11385;50.822;4.324;2023-05-21T03:49:00;14.80;99.90
22436;DHT22;11385;50.822;4.324;2023-05-21T03:51:27;14.70;99.90
22436;DHT22;11385;50.822;4.324;2023-05-21T03:53:57;14.80;99.90
22436;DHT22;11385;50.822;4.324;2023-05-21T03:56:24;14.80;99.90
22436;DHT22;11385;50.822;4.324;2023-05-21T03:58:52;14.70;99.90
22436;DHT22;11385;50.822;4.324;2023-05-21T04:01:19;14.70;99.90
22436;DHT22;11385;50.822;4.324;2023-05-21T04:03:46;14.70;99.90
22436;DHT22;11385;50.822;4.324;2023-05-21T04:06:13;14.80;99.90
22436;DHT22;11385;50.822;4.324;2023-05-21T04:08:41;14.90;99.90
22436;DHT22;11385;50.822;4.324;2023-05-21T04:11:08;14.70;99.90
22436;DHT22;11385;50.822;4.324;2023-05-21T04:13:34;14.70;99.90
22436;DHT22;11385;50.822;4.324;2023-05-21T04:16:01;14.80;99.90
22436;DHT22;11385;50.822;4.324;2023-05-21T04:18:28;14.70;99.90
22436;DHT22;11385;50.822;4.324;2023-05-21T04:20:54;14.60;99.90
22436;DHT22;11385;50.822;4.324;2023-05-21T04:23:22;14.70;99.90
22436;DHT22;11385;50.822;4.324;2023-05-21T04:25:50;14.90;99.90
22436;DHT22;11385;50.822;4.324;2023-05-21T04:28:17;14.90;99.90
22436;DHT22;11385;50.822;4.324;2023-05-21T04:36:13;14.60;99.90
22436;DHT22;11385;50.822;4.324;2023-05-21T04:38:42;14.60;99.90
22436;DHT22;11385;50.822;4.324;2023-05-21T04:41:09;14.70;99.90
22436;DHT22;11385;50.822;4.324;2023-05-21T04:43:37;14.80;99.90
22436;DHT22;11385;50.822;4.324;2023-05-21T04:46:03;14.90;99.90
22436;DHT22;11385;50.822;4.324;2023-05-21T04:48:31;15.00;99.90
22436;DHT22;11385;50.822;4.324;2023-05-21T04:50:57;14.90;99.90
22436;DHT22;11385;50.822;4.324;2023-05-21T04:53:24;14.90;99.90
22436;DHT22;11385;50.822;4.324;2023-05-21T04:55:51;14.90;99.90
22436;DHT22;11385;50.822;4.324;2023-05-21T04:58:18;14.80;99.90
22436;DHT22;11385;50.822;4.324;2023-05-21T05:00:45;14.80;99.90
22436;DHT22;11385;50.822;4.324;2023-05-21T05:03:12;15.00;99.90
22436;DHT22;11385;50.822;4.324;2023-05-21T05:05:39;15.00;99.90
22436;DHT22;11385;50.822;4.324;2023-05-21T05:08:06;15.00;99.90
22436;DHT22;11385;50.822;4.324;2023-05-21T05:10:34;15.10;99.90
22436;DHT22;11385;50.822;4.324;2023-05-21T05:13:01;15.10;99.90
22436;DHT22;11385;50.822;4.324;2023-05-21T05:15:27;15.00;99.90
22436;DHT22;11385;50.822;4.324;2023-05-21T05:17:54;14.90;99.90
22436;DHT22;11385;50.822;4.324;2023-05-21T05:20:21;14.90;99.90
22436;DHT22;11385;50.822;4.324;2023-05-21T05:22:48;15.00;99.90
22436;DHT22;11385;50.822;4.324;2023-05-21T05:25:14;15.10;99.90
22436;DHT22;11385;50.822;4.324;2023-05-21T05:27:41;15.00;99.90
22436;DHT22;11385;50.822;4.324;2023-05-21T05:30:09;14.90;99.90
22436;DHT22;11385;50.822;4.324;2023-05-21T05:32:35;15.10;99.90
22436;DHT22;11385;50.822;4.324;2023-05-21T05:35:02;15.20;99.90
22436;DHT22;11385;50.822;4.324;2023-05-21T05:37:29;15.10;99.90
22436;DHT22;11385;50.822;4.324;2023-05-21T05:39:56;15.30;99.90
22436;DHT22;11385;50.822;4.324;2023-05-21T05:42:22;15.40;99.90
22436;DHT22;11385;50.822;4.324;2023-05-21T05:44:49;15.40;99.90
22436;DHT22;11385;50.822;4.324;2023-05-21T05:47:16;15.50;99.90
22436;DHT22;11385;50.822;4.324;2023-05-21T05:49:43;15.40;99.90
22436;DHT22;11385;50.822;4.324;2023-05-21T05:52:09;15.50;99.90
22436;DHT22;11385;50.822;4.324;2023-05-21T05:54:36;15.50;99.90
22436;DHT22;11385;50.822;4.324;2023-05-21T05:57:03;15.60;99.90
22436;DHT22;11385;50.822;4.324;2023-05-21T05:59:30;15.90;99.90
22436;DHT22;11385;50.822;4.324;2023-05-21T06:01:59;15.90;99.90
22436;DHT22;11385;50.822;4.324;2023-05-21T06:04:26;15.80;99.90
22436;DHT22;11385;50.822;4.324;2023-05-21T06:06:55;15.70;99.90
22436;DHT22;11385;50.822;4.324;2023-05-21T06:09:24;15.70;99.90
22436;DHT22;11385;50.822;4.324;2023-05-21T06:11:51;15.80;99.90
22436;DHT22;11385;50.822;4.324;2023-05-21T06:14:17;15.80;99.90
22436;DHT22;11385;50.822;4.324;2023-05-21T06:16:44;15.90;99.90
22436;DHT22;11385;50.822;4.324;2023-05-21T06:19:11;16.00;99.90
22436;DHT22;11385;50.822;4.324;2023-05-21T06:21:38;15.90;99.90
22436;DHT22;11385;50.822;4.324;2023-05-21T06:24:05;15.90;99.90
22436;DHT22;11385;50.822;4.324;2023-05-21T06:26:32;16.00;99.90
22436;DHT22;11385;50.822;4.324;2023-05-21T06:28:59;16.10;99.90
22436;DHT22;11385;50.822;4.324;2023-05-21T06:31:26;16.20;99.90
22436;DHT22;11385;50.822;4.324;2023-05-21T06:33:53;16.10;99.90
22436;DHT22;11385;50.822;4.324;2023-05-21T06:36:20;15.90;99.90
22436;DHT22;11385;50.822;4.324;2023-05-21T06:38:47;16.00;99.90
22436;DHT22;11385;50.822;4.324;2023-05-21T06:41:13;16.00;99.90
22436;DHT22;11385;50.822;4.324;2023-05-21T06:43:40;16.10;99.90
22436;DHT22;11385;50.822;4.324;2023-05-21T06:46:07;16.20;99.90
22436;DHT22;11385;50.822;4.324;2023-05-21T06:48:33;16.30;99.90
22436;DHT22;11385;50.822;4.324;2023-05-21T06:51:01;16.50;99.90
22436;DHT22;11385;50.822;4.324;2023-05-21T06:53:27;16.50;99.90
22436;DHT22;11385;50.822;4.324;2023-05-21T06:55:54;16.60;99.90
22436;DHT22;11385;50.822;4.324;2023-05-21T06:58:21;16.60;99.90
22436;DHT22;11385;50.822;4.324;2023-05-21T07:00:48;16.70;99.90
22436;DHT22;11385;50.822;4.324;2023-05-21T07:03:14;16.90;99.90
22436;DHT22;11385;50.822;4.324;2023-05-21T07:05:42;17.00;99.90
22436;DHT22;11385;50.822;4.324;2023-05-21T07:08:08;17.20;99.90
22436;DHT22;11385;50.822;4.324;2023-05-21T07:10:35;17.20;99.90
22436;DHT22;11385;50.822;4.324;2023-05-21T07:13:04;17.30;99.90
22436;DHT22;11385;50.822;4.324;2023-05-21T07:15:31;17.30;99.90
22436;DHT22;11385;50.822;4.324;2023-05-21T07:17:58;17.50;99.90
22436;DHT22;11385;50.822;4.324;2023-05-21T07:20:24;17.50;99.90
22436;DHT22;11385;50.822;4.324;2023-05-21T07:22:51;17.50;99.90
22436;DHT22;11385;50.822;4.324;2023-05-21T07:25:18;17.50;99.90
22436;DHT22;11385;50.822;4.324;2023-05-21T07:27:44;17.50;99.90
22436;DHT22;11385;50.822;4.324;2023-05-21T07:30:12;17.50;99.90
22436;DHT22;11385;50.822;4.324;2023-05-21T07:32:39;17.70;99.90
22436;DHT22;11385;50.822;4.324;2023-05-21T07:35:06;17.90;99.90
22436;DHT22;11385;50.822;4.324;2023-05-21T07:37:33;17.80;99.90
22436;DHT22;11385;50.822;4.324;2023-05-21T07:39:59;17.80;99.90
22436;DHT22;11385;50.822;4.324;2023-05-21T07:42:26;18.00;99.90
22436;DHT22;11385;50.822;4.324;2023-05-21T07:44:53;18.00;99.90
22436;DHT22;11385;50.822;4.324;2023-05-21T07:47:20;18.00;99.90
22436;DHT22;11385;50.822;4.324;2023-05-21T07:49:48;17.90;99.90
22436;DHT22;11385;50.822;4.324;2023-05-21T07:52:15;18.10;99.90
22436;DHT22;11385;50.822;4.324;2023-05-21T07:54:42;18.20;99.90
22436;DHT22;11385;50.822;4.324;2023-05-21T07:57:08;18.20;99.90
22436;DHT22;11385;50.822;4.324;2023-05-21T07:59:36;18.10;99.90
22436;DHT22;11385;50.822;4.324;2023-05-21T08:02:02;17.90;99.90
22436;DHT22;11385;50.822;4.324;2023-05-21T08:04:29;18.10;99.90
22436;DHT22;11385;50.822;4.324;2023-05-21T08:06:57;18.20;99.90
22436;DHT22;11385;50.822;4.324;2023-05-21T08:09:23;18.20;99.90
22436;DHT22;11385;50.822;4.324;2023-05-21T08:11:51;18.00;99.90
22436;DHT22;11385;50.822;4.324;2023-05-21T08:14:18;18.00;99.90
22436;DHT22;11385;50.822;4.324;2023-05-21T08:16:45;18.00;99.90
22436;DHT22;11385;50.822;4.324;2023-05-21T08:19:12;18.20;99.90
22436;DHT22;11385;50.822;4.324;2023-05-21T08:21:39;18.20;99.90
22436;DHT22;11385;50.822;4.324;2023-05-21T08:24:06;18.40;99.90
22436;DHT22;11385;50.822;4.324;2023-05-21T08:26:32;18.40;99.90
22436;DHT22;11385;50.822;4.324;2023-05-21T08:29:00;18.40;99.90
22436;DHT22;11385;50.822;4.324;2023-05-21T08:31:27;18.40;99.90
22436;DHT22;11385;50.822;4.324;2023-05-21T08:33:54;18.50;99.90
22436;DHT22;11385;50.822;4.324;2023-05-21T08:36:21;18.50;99.90
22436;DHT22;11385;50.822;4.324;2023-05-21T08:38:48;18.80;99.90
22436;DHT22;11385;50.822;4.324;2023-05-21T08:41:17;18.90;99.90
22436;DHT22;11385;50.822;4.324;2023-05-21T08:43:54;19.00;99.90
22436;DHT22;11385;50.822;4.324;2023-05-21T08:46:31;19.10;99.90
22436;DHT22;11385;50.822;4.324;2023-05-21T08:48:59;19.20;99.90
22436;DHT22;11385;50.822;4.324;2023-05-21T08:51:29;19.30;99.90
22436;DHT22;11385;50.822;4.324;2023-05-21T08:53:56;19.30;99.90
22436;DHT22;11385;50.822;4.324;2023-05-21T08:56:25;19.30;99.90
22436;DHT22;11385;50.822;4.324;2023-05-21T08:58:52;19.40;99.90
22436;DHT22;11385;50.822;4.324;2023-05-21T09:01:22;19.60;99.90
22436;DHT22;11385;50.822;4.324;2023-05-21T09:03:52;19.80;99.90
22436;DHT22;11385;50.822;4.324;2023-05-21T09:06:20;19.60;99.90
22436;DHT22;11385;50.822;4.324;2023-05-21T09:08:52;19.60;99.90
22436;DHT22;11385;50.822;4.324;2023-05-21T09:11:18;19.90;99.90
22436;DHT22;11385;50.822;4.324;2023-05-21T09:13:45;20.00;99.90
22436;DHT22;11385;50.822;4.324;2023-05-21T09:16:13;20.10;99.90
22436;DHT22;11385;50.822;4.324;2023-05-21T09:18:39;20.40;99.90
22436;DHT22;11385;50.822;4.324;2023-05-21T09:21:21;20.20;99.90
22436;DHT22;11385;50.822;4.324;2023-05-21T09:23:41;20.20;99.90
22436;DHT22;11385;50.822;4.324;2023-05-21T09:26:11;20.40;99.90
22436;DHT22;11385;50.822;4.324;2023-05-21T09:28:38;20.60;99.90
22436;DHT22;11385;50.822;4.324;2023-05-21T09:31:06;20.70;99.90
22436;DHT22;11385;50.822;4.324;2023-05-21T09:33:33;20.60;99.90
22436;DHT22;11385;50.822;4.324;2023-05-21T09:35:59;20.80;99.90
22436;DHT22;11385;50.822;4.324;2023-05-21T09:38:27;20.80;99.90
22436;DHT22;11385;50.822;4.324;2023-05-21T09:40:54;20.90;99.90
22436;DHT22;11385;50.822;4.324;2023-05-21T09:43:21;20.90;99.90
22436;DHT22;11385;50.822;4.324;2023-05-21T09:45:53;20.90;99.90
22436;DHT22;11385;50.822;4.324;2023-05-21T09:48:38;20.90;99.90
22436;DHT22;11385;50.822;4.324;2023-05-21T09:51:11;21.00;99.90
22436;DHT22;11385;50.822;4.324;2023-05-21T09:53:51;21.00;99.90
22436;DHT22;11385;50.822;4.324;2023-05-21T09:56:20;21.00;99.90
22436;DHT22;11385;50.822;4.324;2023-05-21T09:59:04;21.00;99.90
22436;DHT22;11385;50.822;4.324;2023-05-21T10:01:31;21.00;99.90
22436;DHT22;11385;50.822;4.324;2023-05-21T10:04:02;21.10;99.90
22436;DHT22;11385;50.822;4.324;2023-05-21T10:06:30;21.40;99.90
22436;DHT22;11385;50.822;4.324;2023-05-21T10:09:01;21.40;99.90
22436;DHT22;11385;50.822;4.324;2023-05-21T10:11:30;21.40;99.90
22436;DHT22;11385;50.822;4.324;2023-05-21T10:14:02;21.60;99.90
22436;DHT22;11385;50.822;4.324;2023-05-21T10:16:30;21.90;99.90
22436;DHT22;11385;50.822;4.324;2023-05-21T10:18:58;22.00;99.90
22436;DHT22;11385;50.822;4.324;2023-05-21T10:21:26;22.10;99.90
22436;DHT22;11385;50.822;4.324;2023-05-21T10:23:54;22.40;99.90
22436;DHT22;11385;50.822;4.324;2023-05-21T10:26:23;22.30;99.90
22436;DHT22;11385;50.822;4.324;2023-05-21T10:28:50;21.80;99.90
22436;DHT22;11385;50.822;4.324;2023-05-21T10:31:17;22.00;99.90
22436;DHT22;11385;50.822;4.324;2023-05-21T10:33:45;22.00;99.90
22436;DHT22;11385;50.822;4.324;2023-05-21T10:36:16;22.30;99.90
22436;DHT22;11385;50.822;4.324;2023-05-21T10:38:43;22.50;99.90
22436;DHT22;11385;50.822;4.324;2023-05-21T10:41:11;22.30;99.90
22436;DHT22;11385;50.822;4.324;2023-05-21T10:44:10;22.50;99.90
22436;DHT22;11385;50.822;4.324;2023-05-21T10:47:17;22.40;99.90
22436;DHT22;11385;50.822;4.324;2023-05-21T10:49:55;22.10;99.90
22436;DHT22;11385;50.822;4.324;2023-05-21T10:52:31;22.30;99.90
22436;DHT22;11385;50.822;4.324;2023-05-21T10:54:59;22.70;99.90
22436;DHT22;11385;50.822;4.324;2023-05-21T10:57:45;23.20;99.90
22436;DHT22;11385;50.822;4.324;2023-05-21T11:00:12;23.60;99.90
22436;DHT22;11385;50.822;4.324;2023-05-21T11:02:41;23.80;99.90
22436;DHT22;11385;50.822;4.324;2023-05-21T11:05:10;23.60;99.90
22436;DHT22;11385;50.822;4.324;2023-05-21T11:07:50;23.60;99.90
22436;DHT22;11385;50.822;4.324;2023-05-21T11:10:40;23.40;99.90
22436;DHT22;11385;50.822;4.324;2023-05-21T11:13:11;24.00;99.90
22436;DHT22;11385;50.822;4.324;2023-05-21T11:18:18;24.20;99.90
22436;DHT22;11385;50.822;4.324;2023-05-21T11:20:49;24.20;99.90
22436;DHT22;11385;50.822;4.324;2023-05-21T11:23:19;24.00;99.90
22436;DHT22;11385;50.822;4.324;2023-05-21T11:26:05;24.40;99.90
22436;DHT22;11385;50.822;4.324;2023-05-21T11:28:33;24.60;99.90
22436;DHT22;11385;50.822;4.324;2023-05-21T11:31:23;24.40;99.90
22436;DHT22;11385;50.822;4.324;2023-05-21T11:36:47;23.50;99.90
22436;DHT22;11385;50.822;4.324;2023-05-21T11:39:16;22.70;99.90
22436;DHT22;11385;50.822;4.324;2023-05-21T11:41:52;23.00;99.90
22436;DHT22;11385;50.822;4.324;2023-05-21T11:46:56;23.50;99.90
22436;DHT22;11385;50.822;4.324;2023-05-21T11:49:24;23.40;99.90
22436;DHT22;11385;50.822;4.324;2023-05-21T11:51:51;23.80;99.90
22436;DHT22;11385;50.822;4.324;2023-05-21T11:54:22;23.60;99.90
22436;DHT22;11385;50.822;4.324;2023-05-21T11:56:51;23.50;99.90
22436;DHT22;11385;50.822;4.324;2023-05-21T11:59:18;23.60;99.90
22436;DHT22;11385;50.822;4.324;2023-05-21T12:01:45;24.20;99.90
22436;DHT22;11385;50.822;4.324;2023-05-21T12:04:12;24.00;99.90
22436;DHT22;11385;50.822;4.324;2023-05-21T12:06:41;24.20;99.90
22436;DHT22;11385;50.822;4.324;2023-05-21T12:09:09;24.40;99.90
22436;DHT22;11385;50.822;4.324;2023-05-21T12:11:37;24.30;99.90
22436;DHT22;11385;50.822;4.324;2023-05-21T12:14:07;24.20;99.90
22436;DHT22;11385;50.822;4.324;2023-05-21T12:16:36;24.10;99.90
22436;DHT22;11385;50.822;4.324;2023-05-21T12:19:03;24.50;99.90
22436;DHT22;11385;50.822;4.324;2023-05-21T12:21:33;24.50;99.90
22436;DHT22;11385;50.822;4.324;2023-05-21T12:24:01;24.70;99.90
22436;DHT22;11385;50.822;4.324;2023-05-21T12:26:28;24.50;99.90
22436;DHT22;11385;50.822;4.324;2023-05-21T12:28:57;24.50;99.90
22436;DHT22;11385;50.822;4.324;2023-05-21T12:31:24;24.40;99.90
22436;DHT22;11385;50.822;4.324;2023-05-21T12:33:53;24.40;99.90
22436;DHT22;11385;50.822;4.324;2023-05-21T12:36:28;24.70;99.90
22436;DHT22;11385;50.822;4.324;2023-05-21T12:38:56;24.50;99.90
22436;DHT22;11385;50.822;4.324;2023-05-21T12:41:23;24.70;99.90
22436;DHT22;11385;50.822;4.324;2023-05-21T12:43:50;24.70;99.90
22436;DHT22;11385;50.822;4.324;2023-05-21T12:46:17;24.50;99.90
22436;DHT22;11385;50.822;4.324;2023-05-21T12:48:52;24.40;99.90
22436;DHT22;11385;50.822;4.324;2023-05-21T12:51:20;24.10;99.90
22436;DHT22;11385;50.822;4.324;2023-05-21T12:53:47;24.20;99.90
22436;DHT22;11385;50.822;4.324;2023-05-21T12:56:14;24.40;99.90
22436;DHT22;11385;50.822;4.324;2023-05-21T12:58:42;24.70;99.90
22436;DHT22;11385;50.822;4.324;2023-05-21T13:01:11;24.60;99.90
22436;DHT22;11385;50.822;4.324;2023-05-21T13:03:39;24.50;99.90
22436;DHT22;11385;50.822;4.324;2023-05-21T13:06:08;24.30;99.90
22436;DHT22;11385;50.822;4.324;2023-05-21T13:08:34;25.00;99.90
22436;DHT22;11385;50.822;4.324;2023-05-21T13:11:02;25.50;99.90
22436;DHT22;11385;50.822;4.324;2023-05-21T13:13:29;25.10;99.90
22436;DHT22;11385;50.822;4.324;2023-05-21T13:15:57;25.10;99.90
22436;DHT22;11385;50.822;4.324;2023-05-21T13:18:25;24.70;99.90
22436;DHT22;11385;50.822;4.324;2023-05-21T13:20:52;24.60;99.90
22436;DHT22;11385;50.822;4.324;2023-05-21T13:23:19;24.30;99.90
22436;DHT22;11385;50.822;4.324;2023-05-21T13:25:46;24.40;99.90
22436;DHT22;11385;50.822;4.324;2023-05-21T13:28:13;24.70;99.90
22436;DHT22;11385;50.822;4.324;2023-05-21T13:30:40;24.70;99.90
22436;DHT22;11385;50.822;4.324;2023-05-21T13:33:07;24.80;99.90
22436;DHT22;11385;50.822;4.324;2023-05-21T13:35:34;25.10;99.90
22436;DHT22;11385;50.822;4.324;2023-05-21T13:38:01;25.00;99.90
22436;DHT22;11385;50.822;4.324;2023-05-21T13:40:27;24.80;99.90
22436;DHT22;11385;50.822;4.324;2023-05-21T13:42:54;25.00;99.90
22436;DHT22;11385;50.822;4.324;2023-05-21T13:45:21;25.50;99.90
22436;DHT22;11385;50.822;4.324;2023-05-21T13:47:49;25.50;99.90
22436;DHT22;11385;50.822;4.324;2023-05-21T13:50:16;25.10;99.90
22436;DHT22;11385;50.822;4.324;2023-05-21T13:52:43;25.20;99.90
22436;DHT22;11385;50.822;4.324;2023-05-21T13:55:11;25.20;99.90
22436;DHT22;11385;50.822;4.324;2023-05-21T13:57:37;25.30;99.90
22436;DHT22;11385;50.822;4.324;2023-05-21T14:00:06;25.10;99.90
22436;DHT22;11385;50.822;4.324;2023-05-21T14:02:37;24.60;99.90
22436;DHT22;11385;50.822;4.324;2023-05-21T14:05:03;24.30;99.90
22436;DHT22;11385;50.822;4.324;2023-05-21T14:07:30;24.60;99.90
22436;DHT22;11385;50.822;4.324;2023-05-21T14:09:57;25.10;99.90
22436;DHT22;11385;50.822;4.324;2023-05-21T14:12:24;25.30;99.90
22436;DHT22;11385;50.822;4.324;2023-05-21T14:14:51;25.20;99.90
22436;DHT22;11385;50.822;4.324;2023-05-21T14:17:18;25.00;99.90
22436;DHT22;11385;50.822;4.324;2023-05-21T14:19:45;25.20;99.90
22436;DHT22;11385;50.822;4.324;2023-05-21T14:22:13;25.30;99.90
22436;DHT22;11385;50.822;4.324;2023-05-21T14:24:40;25.60;99.90
22436;DHT22;11385;50.822;4.324;2023-05-21T14:27:06;25.90;99.90
22436;DHT22;11385;50.822;4.324;2023-05-21T14:29:33;26.30;99.90
22436;DHT22;11385;50.822;4.324;2023-05-21T14:32:00;26.80;99.90
22436;DHT22;11385;50.822;4.324;2023-05-21T14:34:27;26.70;99.90
22436;DHT22;11385;50.822;4.324;2023-05-21T14:36:54;26.90;99.90
22436;DHT22;11385;50.822;4.324;2023-05-21T14:39:20;26.40;99.90
22436;DHT22;11385;50.822;4.324;2023-05-21T14:41:47;26.50;99.90
22436;DHT22;11385;50.822;4.324;2023-05-21T14:44:14;26.90;99.90
22436;DHT22;11385;50.822;4.324;2023-05-21T14:46:41;27.10;99.90
22436;DHT22;11385;50.822;4.324;2023-05-21T14:49:07;26.70;99.90
22436;DHT22;11385;50.822;4.324;2023-05-21T14:51:34;26.70;99.90
22436;DHT22;11385;50.822;4.324;2023-05-21T14:54:01;26.80;99.90
22436;DHT22;11385;50.822;4.324;2023-05-21T14:56:28;26.30;99.90
22436;DHT22;11385;50.822;4.324;2023-05-21T14:58:55;26.00;99.90
22436;DHT22;11385;50.822;4.324;2023-05-21T15:01:22;25.70;99.90
22436;DHT22;11385;50.822;4.324;2023-05-21T15:03:49;25.60;99.90
22436;DHT22;11385;50.822;4.324;2023-05-21T15:06:16;25.90;99.90
22436;DHT22;11385;50.822;4.324;2023-05-21T15:08:42;25.90;99.90
22436;DHT22;11385;50.822;4.324;2023-05-21T15:11:09;25.80;99.90
22436;DHT22;11385;50.822;4.324;2023-05-21T15:13:37;25.80;99.90
22436;DHT22;11385;50.822;4.324;2023-05-21T15:16:04;25.80;99.90
22436;DHT22;11385;50.822;4.324;2023-05-21T15:18:30;26.20;99.90
22436;DHT22;11385;50.822;4.324;2023-05-21T15:20:58;26.00;99.90
22436;DHT22;11385;50.822;4.324;2023-05-21T15:23:25;25.80;99.90
22436;DHT22;11385;50.822;4.324;2023-05-21T15:25:52;25.70;99.90
22436;DHT22;11385;50.822;4.324;2023-05-21T15:28:18;25.80;99.90
22436;DHT22;11385;50.822;4.324;2023-05-21T15:30:45;26.20;99.90
22436;DHT22;11385;50.822;4.324;2023-05-21T15:33:12;25.90;99.90
22436;DHT22;11385;50.822;4.324;2023-05-21T15:35:39;25.60;99.90
22436;DHT22;11385;50.822;4.324;2023-05-21T15:38:05;25.80;99.90
22436;DHT22;11385;50.822;4.324;2023-05-21T15:40:32;26.40;99.90
22436;DHT22;11385;50.822;4.324;2023-05-21T15:42:59;26.10;99.90
22436;DHT22;11385;50.822;4.324;2023-05-21T15:45:25;26.10;99.90
22436;DHT22;11385;50.822;4.324;2023-05-21T15:47:52;26.00;99.90
22436;DHT22;11385;50.822;4.324;2023-05-21T15:50:19;26.30;99.90